createdAt,value
2019-05-02T05:19:00.087Z,71.70
2019-05-02T05:21:30.054Z,73.90
2019-05-02T05:24:18.766Z,72.90
2019-05-02T05:26:51.417Z,72.80
2019-05-02T05:29:23.259Z,68.90
2019-05-02T05:31:55.102Z,65.40
2019-05-02T05:34:30.717Z,65.40
2019-05-02T05:36:58.196Z,63.50
2019-05-02T05:41:58.000Z,60.60
2019-05-02T05:44:32.484Z,60.10
2019-05-02T05:46:59.510Z,58.20
2019-05-02T05:49:30.332Z,57.90
2019-05-02T05:52:03.706Z,57.60
2019-05-02T05:54:33.012Z,55.90
2019-05-02T05:57:04.285Z,53.40
2019-05-02T05:59:41.424Z,51.80
2019-05-02T06:02:14.749Z,48.00
2019-05-02T06:04:47.350Z,50.80
2019-05-02T06:07:20.065Z,48.50
2019-05-02T06:09:53.381Z,46.50
2019-05-02T06:12:26.134Z,48.60
2019-05-02T06:14:56.433Z,46.40
2019-05-02T06:17:28.466Z,43.90
2019-05-02T06:20:02.064Z,45.30
2019-05-02T06:22:32.703Z,42.10
2019-05-02T06:25:09.354Z,37.30
2019-05-02T06:27:39.450Z,38.40
2019-05-02T06:30:09.917Z,36.80
2019-05-02T06:32:40.095Z,39.60
2019-05-02T06:35:10.084Z,36.50
2019-05-02T07:10:07.750Z,37.50
2019-05-02T07:12:38.698Z,38.40
2019-05-02T07:15:20.410Z,37.70
2019-05-02T07:17:51.837Z,36.50
2019-05-02T07:20:21.666Z,34.20
2019-05-02T07:22:51.971Z,36.10
2019-05-02T07:25:21.772Z,37.70
2019-05-02T07:27:51.499Z,33.10
2019-05-02T07:30:21.402Z,34.00
2019-05-02T07:32:51.242Z,33.50
2019-05-02T07:37:51.687Z,29.60
2019-05-02T07:40:21.503Z,31.50
2019-05-02T07:42:51.267Z,32.60
2019-05-02T07:45:20.997Z,29.70
2019-05-02T07:47:52.784Z,31.10
2019-05-02T07:55:20.589Z,32.00
2019-05-02T07:57:50.704Z,33.30
2019-05-02T08:00:21.672Z,32.20
2019-05-02T08:02:51.484Z,31.10
2019-05-02T08:05:23.751Z,31.50
2019-05-02T08:07:55.030Z,28.70
2019-05-02T08:10:24.682Z,29.60
2019-05-02T08:12:54.480Z,29.60
2019-05-02T08:17:55.235Z,31.90
2019-05-02T08:20:25.312Z,28.80
2019-05-02T08:22:55.067Z,29.20
2019-05-02T08:25:24.843Z,30.30
2019-05-02T08:28:16.044Z,28.30
2019-05-02T08:30:50.648Z,28.30
2019-05-02T08:33:20.389Z,29.50
2019-05-02T08:35:50.145Z,31.30
2019-05-02T08:38:19.934Z,32.00
2019-05-02T08:40:49.746Z,29.70
2019-05-02T08:43:19.654Z,28.80
2019-05-02T08:45:50.593Z,28.60
2019-05-02T08:48:22.686Z,28.70
2019-05-02T08:50:52.084Z,28.00
2019-05-02T08:53:22.265Z,28.50
2019-05-02T08:55:52.307Z,27.60
2019-05-02T08:58:22.075Z,27.60
2019-05-02T09:00:53.965Z,27.60
2019-05-02T09:03:25.403Z,28.30
2019-05-02T09:06:05.349Z,28.50
2019-05-02T09:08:30.395Z,28.80
2019-05-02T09:13:33.004Z,28.10
2019-05-02T09:16:15.440Z,28.50
2019-05-02T09:18:53.813Z,29.70
2019-05-02T09:21:22.126Z,30.90
2019-05-02T09:28:56.210Z,30.20
2019-05-02T09:36:25.829Z,33.30
2019-05-02T09:46:26.516Z,33.20
2019-05-02T09:48:57.132Z,33.00
2019-05-02T09:51:28.119Z,32.30
2019-05-02T09:56:30.163Z,32.30
2019-05-02T09:59:06.314Z,32.70
2019-05-02T10:06:43.051Z,33.80
2019-05-02T10:09:13.112Z,33.90
2019-05-02T10:14:13.149Z,34.20
2019-05-02T10:16:43.312Z,32.10
2019-05-02T10:19:13.683Z,33.40
2019-05-02T10:21:46.941Z,31.70
2019-05-02T10:24:15.360Z,32.20
2019-05-02T10:26:45.178Z,33.60
2019-05-02T10:29:15.211Z,32.10
2019-05-02T10:31:45.338Z,31.60
2019-05-02T10:39:16.041Z,31.10
2019-05-02T10:41:46.052Z,31.80
2019-05-02T10:46:55.810Z,31.40
2019-05-02T10:49:50.104Z,31.30
2019-05-02T10:52:21.556Z,31.90
2019-05-02T10:54:52.834Z,30.40
2019-05-02T10:57:23.123Z,31.40
2019-05-02T10:59:55.785Z,29.80
2019-05-02T11:02:55.364Z,29.80
2019-05-02T11:05:26.750Z,29.80
2019-05-02T11:08:03.678Z,29.70
2019-05-02T11:10:29.135Z,30.70
2019-05-02T11:13:09.983Z,30.90
2019-05-02T11:16:03.759Z,31.70
2019-05-02T11:18:49.011Z,31.20
2019-05-02T11:58:48.191Z,30.40
2019-05-02T12:01:19.731Z,30.80
2019-05-02T12:03:52.441Z,31.30
2019-05-02T12:06:23.146Z,30.30
2019-05-02T12:08:53.184Z,32.10
2019-05-02T12:11:23.157Z,31.50
2019-05-02T12:13:56.974Z,33.30
2019-05-02T15:03:03.348Z,26.00
2019-05-02T15:23:07.236Z,25.60
2019-05-02T15:25:42.258Z,27.10
2019-05-02T15:41:09.524Z,25.80
2019-05-02T15:43:39.349Z,25.80
2019-05-02T15:46:15.681Z,26.70
2019-05-02T15:48:43.682Z,26.10
2019-05-02T15:53:52.466Z,25.50
2019-05-02T15:56:21.620Z,25.80
2019-05-02T15:58:52.143Z,26.00
2019-05-02T16:01:46.016Z,26.90
2019-05-02T16:14:13.566Z,27.20
2019-05-02T16:16:45.250Z,27.30
2019-05-02T16:19:24.682Z,28.60
2019-05-02T16:21:54.487Z,28.30
2019-05-02T16:24:24.677Z,29.30
2019-05-02T16:26:57.132Z,28.50
2019-05-02T16:29:28.793Z,28.50
2019-05-02T16:32:15.132Z,28.90
2019-05-02T16:34:59.268Z,28.90
2019-05-02T16:37:29.109Z,29.30
2019-05-02T16:39:58.874Z,30.70
2019-05-02T16:42:29.008Z,31.10
2019-05-02T16:44:58.975Z,31.50
2019-05-02T16:47:28.831Z,30.50
2019-05-02T16:49:58.668Z,30.90
2019-05-02T16:52:28.441Z,31.60
2019-05-02T16:54:58.489Z,31.40
2019-05-02T16:57:28.338Z,31.20
2019-05-02T17:00:01.156Z,30.90
2019-05-02T17:02:29.687Z,31.40
2019-05-02T17:05:00.173Z,33.10
2019-05-02T17:07:53.012Z,32.10
2019-05-02T17:10:53.816Z,34.40
2019-05-02T17:13:22.748Z,32.20
2019-05-02T17:15:52.662Z,34.10
2019-05-02T17:18:22.932Z,33.40
2019-05-02T17:20:56.680Z,32.70
2019-05-02T17:23:24.353Z,32.60
2019-05-02T17:25:54.167Z,33.90
2019-05-02T17:28:24.018Z,34.00
2019-05-02T17:30:53.914Z,34.30
2019-05-02T17:33:23.769Z,36.60
2019-05-02T17:35:54.393Z,35.00
2019-05-02T17:38:29.084Z,36.00
2019-05-02T17:40:59.341Z,36.50
2019-05-02T17:43:27.187Z,36.60
2019-05-02T17:45:56.973Z,38.50
2019-05-02T17:48:26.715Z,37.20
2019-05-02T17:51:22.728Z,37.70
2019-05-02T17:53:52.628Z,38.50
2019-05-02T17:56:23.242Z,38.40
2019-05-02T17:58:58.195Z,38.20
2019-05-02T18:01:35.269Z,39.00
2019-05-02T18:04:06.791Z,38.60
2019-05-02T18:06:37.248Z,39.10
2019-05-02T18:09:08.977Z,39.00
2019-05-02T18:11:38.756Z,39.00
2019-05-02T18:14:18.637Z,39.30
2019-05-02T18:16:41.860Z,39.40
2019-05-02T18:19:11.306Z,39.20
2019-05-02T18:21:41.898Z,39.20
2019-05-02T18:24:12.590Z,39.60
2019-05-02T18:26:42.671Z,40.70
2019-05-02T18:29:15.274Z,40.90
2019-05-02T18:31:47.383Z,40.40
2019-05-02T18:34:23.707Z,40.50
2019-05-02T18:36:46.745Z,41.90
2019-05-02T18:39:16.631Z,41.30
2019-05-02T18:41:46.551Z,41.50
2019-05-02T18:44:17.359Z,41.50
2019-05-02T18:46:47.812Z,42.20
2019-05-02T18:49:21.949Z,42.10
2019-05-02T18:51:55.612Z,42.50
2019-05-02T18:54:21.703Z,42.90
2019-05-02T18:56:55.247Z,42.90
2019-05-02T18:59:27.015Z,43.00
2019-05-02T19:01:56.557Z,43.00
2019-05-02T19:04:34.877Z,42.60
2019-05-02T19:06:57.534Z,42.30
2019-05-02T19:09:30.036Z,42.90
2019-05-02T19:12:05.253Z,43.20
2019-05-02T19:14:30.011Z,43.00
2019-05-02T19:17:03.610Z,42.50
2019-05-02T19:19:32.959Z,41.60
2019-05-02T19:22:07.274Z,41.90
2019-05-02T19:24:36.482Z,42.10
2019-05-02T19:27:06.100Z,42.50
2019-05-02T19:29:35.800Z,43.10
2019-05-02T19:32:08.632Z,44.70
2019-05-02T19:34:38.454Z,45.40
2019-05-02T19:37:08.230Z,45.30
2019-05-02T19:39:39.084Z,46.90
2019-05-02T19:42:12.140Z,47.10
2019-05-02T19:44:42.066Z,47.10
2019-05-02T19:47:13.689Z,46.90
2019-05-02T19:49:47.202Z,47.60
2019-05-02T19:52:14.856Z,47.80
2019-05-02T19:54:44.599Z,48.50
2019-05-02T19:57:24.862Z,50.00
2019-05-02T19:59:48.946Z,50.70
2019-05-02T20:02:22.729Z,50.70
2019-05-02T20:04:52.454Z,52.10
2019-05-02T20:07:25.530Z,53.70
2019-05-02T20:09:55.272Z,54.50
2019-05-02T20:12:25.083Z,54.90
2019-05-02T20:14:54.879Z,56.20
2019-05-02T20:17:24.663Z,56.60
2019-05-02T20:19:57.707Z,55.80
2019-05-02T20:22:28.294Z,55.20
2019-05-02T20:25:01.221Z,54.40
2019-05-02T20:27:32.948Z,54.20
2019-05-02T20:30:04.145Z,54.10
2019-05-02T20:32:39.424Z,54.60
2019-05-02T20:35:09.180Z,55.10
2019-05-02T20:37:41.974Z,55.10
2019-05-02T20:40:28.387Z,55.10
2019-05-02T20:42:58.199Z,57.00
2019-05-02T20:45:28.043Z,58.30
2019-05-02T20:47:58.307Z,58.40
2019-05-02T20:50:28.052Z,59.10
2019-05-02T20:52:58.014Z,59.00
2019-05-02T20:55:27.714Z,59.00
2019-05-02T20:57:57.515Z,59.30
2019-05-02T21:00:29.270Z,58.00
2019-05-02T21:02:59.139Z,56.90
2019-05-02T21:05:34.951Z,57.30
2019-05-02T21:08:36.063Z,57.70
2019-05-02T21:11:05.938Z,59.10
2019-05-02T21:13:35.724Z,59.50
2019-05-02T21:16:05.908Z,59.10
2019-05-02T21:18:35.653Z,61.30
2019-05-02T21:21:05.572Z,61.80
2019-05-02T21:23:43.785Z,61.30
2019-05-02T21:26:06.950Z,61.50
2019-05-02T21:28:36.719Z,62.60
2019-05-02T21:31:08.211Z,62.50
2019-05-02T21:33:39.651Z,61.90
2019-05-02T21:36:11.793Z,61.70
2019-05-02T21:38:42.811Z,61.80
2019-05-02T21:41:12.826Z,61.40
2019-05-02T21:43:42.734Z,61.70
2019-05-02T21:46:12.434Z,62.60
2019-05-02T21:48:42.195Z,63.40
2019-05-02T21:51:42.945Z,63.90
2019-05-02T21:54:40.573Z,65.40
2019-05-02T21:57:13.881Z,65.00
2019-05-02T21:59:43.614Z,64.80
2019-05-02T22:02:13.964Z,65.00
2019-05-02T22:04:43.683Z,65.70
2019-05-02T22:07:13.535Z,64.60
2019-05-02T22:09:43.306Z,65.60
2019-05-02T22:12:13.087Z,68.60
2019-05-02T22:14:42.808Z,70.30
2019-05-02T22:17:12.768Z,70.40
2019-05-02T22:19:42.650Z,70.90
2019-05-02T22:22:12.438Z,71.50
2019-05-02T22:24:42.267Z,71.60
2019-05-02T22:27:12.435Z,73.80
2019-05-02T22:29:43.047Z,74.70
2019-05-02T22:32:12.907Z,73.20
2019-05-02T22:34:45.141Z,71.20
2019-05-02T22:37:15.562Z,70.80
2019-05-02T22:39:53.165Z,70.30
2019-05-02T22:42:23.196Z,70.70
2019-05-02T22:44:52.918Z,71.40
2019-05-02T22:47:22.818Z,71.30
2019-05-02T22:49:52.571Z,72.90
2019-05-02T22:52:22.278Z,72.50
2019-05-02T22:54:52.267Z,74.10
2019-05-02T22:57:22.664Z,73.30
2019-05-02T22:59:52.555Z,71.90
2019-05-02T23:02:22.325Z,70.80
2019-05-02T23:04:52.783Z,71.10
2019-05-02T23:07:22.707Z,72.10
2019-05-02T23:09:52.895Z,73.30
2019-05-02T23:12:25.050Z,73.60
2019-05-02T23:14:54.045Z,73.60
2019-05-02T23:17:23.848Z,73.40
2019-05-02T23:19:53.501Z,76.40
2019-05-02T23:22:23.215Z,78.20
2019-05-02T23:25:07.561Z,77.70
2019-05-02T23:27:44.443Z,77.10
2019-05-02T23:30:17.246Z,80.10
2019-05-02T23:32:46.949Z,82.10
2019-05-02T23:35:16.759Z,83.10
2019-05-02T23:37:46.480Z,82.50
2019-05-02T23:40:16.576Z,81.10
2019-05-02T23:42:46.312Z,80.80
2019-05-02T23:45:16.086Z,81.20
2019-05-02T23:47:45.792Z,81.30
2019-05-02T23:50:15.486Z,82.00
2019-05-02T23:52:45.198Z,83.30
2019-05-02T23:55:14.977Z,82.00
2019-05-02T23:57:44.674Z,84.30
